sensor_id;sensor_type;location;lat;lon;timestamp;P1;durP1;ratioP1;P2;durP2;ratioP2
13014;SDS011;6573;57.696;11.950;2023-05-16T00:02:25;15.27;;;12.37;;
13014;SDS011;6573;57.696;11.950;2023-05-16T00:04:53;14.90;;;12.73;;
13014;SDS011;6573;57.696;11.950;2023-05-16T00:07:22;16.30;;;12.30;;
13014;SDS011;6573;57.696;11.950;2023-05-16T00:09:51;31.03;;;14.97;;
13014;SDS011;6573;57.696;11.950;2023-05-16T00:12:20;19.17;;;12.87;;
13014;SDS011;6573;57.696;11.950;2023-05-16T00:14:49;15.57;;;14.10;;
13014;SDS011;6573;57.696;11.950;2023-05-16T00:17:18;18.03;;;11.70;;
13014;SDS011;6573;57.696;11.950;2023-05-16T00:19:47;14.93;;;12.27;;
13014;SDS011;6573;57.696;11.950;2023-05-16T00:22:23;21.07;;;13.50;;
13014;SDS011;6573;57.696;11.950;2023-05-16T00:24:53;15.50;;;12.73;;
13014;SDS011;6573;57.696;11.950;2023-05-16T00:27:22;17.80;;;13.00;;
13014;SDS011;6573;57.696;11.950;2023-05-16T00:29:51;20.00;;;14.30;;
13014;SDS011;6573;57.696;11.950;2023-05-16T00:32:19;21.57;;;14.93;;
13014;SDS011;6573;57.696;11.950;2023-05-16T00:34:48;19.83;;;17.60;;
13014;SDS011;6573;57.696;11.950;2023-05-16T00:37:16;23.40;;;15.37;;
13014;SDS011;6573;57.696;11.950;2023-05-16T00:39:44;20.03;;;17.93;;
13014;SDS011;6573;57.696;11.950;2023-05-16T00:42:13;20.07;;;15.10;;
13014;SDS011;6573;57.696;11.950;2023-05-16T00:44:43;19.87;;;16.07;;
13014;SDS011;6573;57.696;11.950;2023-05-16T00:47:11;21.00;;;18.57;;
13014;SDS011;6573;57.696;11.950;2023-05-16T00:49:40;22.10;;;18.87;;
13014;SDS011;6573;57.696;11.950;2023-05-16T00:52:09;22.70;;;18.73;;
13014;SDS011;6573;57.696;11.950;2023-05-16T00:54:38;19.93;;;16.30;;
13014;SDS011;6573;57.696;11.950;2023-05-16T00:57:06;23.80;;;16.03;;
13014;SDS011;6573;57.696;11.950;2023-05-16T00:59:35;21.37;;;16.93;;
13014;SDS011;6573;57.696;11.950;2023-05-16T01:02:05;24.80;;;15.63;;
13014;SDS011;6573;57.696;11.950;2023-05-16T01:04:34;23.03;;;17.20;;
13014;SDS011;6573;57.696;11.950;2023-05-16T01:07:02;21.10;;;16.30;;
13014;SDS011;6573;57.696;11.950;2023-05-16T01:09:31;21.77;;;19.67;;
13014;SDS011;6573;57.696;11.950;2023-05-16T01:12:06;24.30;;;19.67;;
13014;SDS011;6573;57.696;11.950;2023-05-16T01:14:41;23.97;;;19.97;;
13014;SDS011;6573;57.696;11.950;2023-05-16T01:17:20;19.27;;;16.70;;
13014;SDS011;6573;57.696;11.950;2023-05-16T01:19:59;20.07;;;16.10;;
13014;SDS011;6573;57.696;11.950;2023-05-16T01:22:37;19.90;;;16.40;;
13014;SDS011;6573;57.696;11.950;2023-05-16T01:25:20;18.90;;;16.40;;
13014;SDS011;6573;57.696;11.950;2023-05-16T01:27:59;19.47;;;16.03;;
13014;SDS011;6573;57.696;11.950;2023-05-16T01:30:31;23.97;;;16.50;;
13014;SDS011;6573;57.696;11.950;2023-05-16T01:33:00;21.17;;;18.97;;
13014;SDS011;6573;57.696;11.950;2023-05-16T01:35:29;24.70;;;17.67;;
13014;SDS011;6573;57.696;11.950;2023-05-16T01:38:04;22.17;;;16.53;;
13014;SDS011;6573;57.696;11.950;2023-05-16T01:40:41;21.20;;;16.47;;
13014;SDS011;6573;57.696;11.950;2023-05-16T01:43:19;20.97;;;17.67;;
13014;SDS011;6573;57.696;11.950;2023-05-16T01:45:59;21.90;;;17.27;;
13014;SDS011;6573;57.696;11.950;2023-05-16T01:48:34;19.73;;;16.30;;
13014;SDS011;6573;57.696;11.950;2023-05-16T01:51:09;22.87;;;20.50;;
13014;SDS011;6573;57.696;11.950;2023-05-16T01:53:39;21.53;;;16.50;;
13014;SDS011;6573;57.696;11.950;2023-05-16T01:56:12;20.57;;;17.40;;
13014;SDS011;6573;57.696;11.950;2023-05-16T01:58:45;21.50;;;17.00;;
13014;SDS011;6573;57.696;11.950;2023-05-16T02:01:16;21.93;;;17.20;;
13014;SDS011;6573;57.696;11.950;2023-05-16T02:03:46;21.43;;;17.83;;
13014;SDS011;6573;57.696;11.950;2023-05-16T02:06:14;26.60;;;18.00;;
13014;SDS011;6573;57.696;11.950;2023-05-16T02:08:43;25.70;;;17.97;;
13014;SDS011;6573;57.696;11.950;2023-05-16T02:11:11;26.17;;;21.23;;
13014;SDS011;6573;57.696;11.950;2023-05-16T02:13:39;24.27;;;21.40;;
13014;SDS011;6573;57.696;11.950;2023-05-16T02:16:12;24.03;;;18.13;;
13014;SDS011;6573;57.696;11.950;2023-05-16T02:18:41;20.43;;;17.03;;
13014;SDS011;6573;57.696;11.950;2023-05-16T02:21:10;24.47;;;21.57;;
13014;SDS011;6573;57.696;11.950;2023-05-16T02:23:39;24.23;;;18.47;;
13014;SDS011;6573;57.696;11.950;2023-05-16T02:26:20;25.63;;;22.93;;
13014;SDS011;6573;57.696;11.950;2023-05-16T02:28:49;25.80;;;23.27;;
13014;SDS011;6573;57.696;11.950;2023-05-16T02:31:25;27.33;;;19.10;;
13014;SDS011;6573;57.696;11.950;2023-05-16T02:33:55;23.13;;;18.07;;
13014;SDS011;6573;57.696;11.950;2023-05-16T02:36:24;25.60;;;19.63;;
13014;SDS011;6573;57.696;11.950;2023-05-16T02:38:52;23.23;;;16.67;;
13014;SDS011;6573;57.696;11.950;2023-05-16T02:41:21;18.47;;;15.77;;
13014;SDS011;6573;57.696;11.950;2023-05-16T02:43:49;24.37;;;16.17;;
13014;SDS011;6573;57.696;11.950;2023-05-16T02:46:21;22.57;;;16.60;;
13014;SDS011;6573;57.696;11.950;2023-05-16T02:48:53;18.17;;;15.40;;
13014;SDS011;6573;57.696;11.950;2023-05-16T02:51:22;21.00;;;15.43;;
13014;SDS011;6573;57.696;11.950;2023-05-16T02:53:52;18.10;;;15.23;;
13014;SDS011;6573;57.696;11.950;2023-05-16T02:56:22;18.80;;;15.93;;
13014;SDS011;6573;57.696;11.950;2023-05-16T02:58:52;19.60;;;15.47;;
13014;SDS011;6573;57.696;11.950;2023-05-16T03:01:21;22.20;;;16.33;;
13014;SDS011;6573;57.696;11.950;2023-05-16T03:03:49;22.00;;;19.67;;
13014;SDS011;6573;57.696;11.950;2023-05-16T03:06:19;20.83;;;17.23;;
13014;SDS011;6573;57.696;11.950;2023-05-16T03:08:49;23.20;;;17.10;;
13014;SDS011;6573;57.696;11.950;2023-05-16T03:11:17;24.17;;;21.57;;
13014;SDS011;6573;57.696;11.950;2023-05-16T03:13:48;25.83;;;19.97;;
13014;SDS011;6573;57.696;11.950;2023-05-16T03:16:16;25.70;;;23.10;;
13014;SDS011;6573;57.696;11.950;2023-05-16T03:18:45;33.70;;;30.20;;
13014;SDS011;6573;57.696;11.950;2023-05-16T03:21:13;27.90;;;23.67;;
13014;SDS011;6573;57.696;11.950;2023-05-16T03:23:43;29.77;;;23.63;;
13014;SDS011;6573;57.696;11.950;2023-05-16T03:26:11;27.73;;;22.80;;
13014;SDS011;6573;57.696;11.950;2023-05-16T03:28:40;28.90;;;21.13;;
13014;SDS011;6573;57.696;11.950;2023-05-16T03:31:08;28.33;;;24.57;;
13014;SDS011;6573;57.696;11.950;2023-05-16T03:33:37;27.93;;;21.07;;
13014;SDS011;6573;57.696;11.950;2023-05-16T03:36:05;25.67;;;20.10;;
13014;SDS011;6573;57.696;11.950;2023-05-16T03:38:34;22.90;;;18.77;;
13014;SDS011;6573;57.696;11.950;2023-05-16T03:41:03;24.10;;;17.73;;
13014;SDS011;6573;57.696;11.950;2023-05-16T03:43:32;26.20;;;18.83;;
13014;SDS011;6573;57.696;11.950;2023-05-16T03:46:00;23.30;;;18.27;;
13014;SDS011;6573;57.696;11.950;2023-05-16T03:48:29;21.20;;;18.23;;
13014;SDS011;6573;57.696;11.950;2023-05-16T03:50:59;25.43;;;17.93;;
13014;SDS011;6573;57.696;11.950;2023-05-16T03:53:27;24.73;;;19.40;;
13014;SDS011;6573;57.696;11.950;2023-05-16T03:55:56;26.10;;;19.57;;
13014;SDS011;6573;57.696;11.950;2023-05-16T03:58:26;23.90;;;21.40;;
13014;SDS011;6573;57.696;11.950;2023-05-16T04:00:54;26.83;;;18.17;;
13014;SDS011;6573;57.696;11.950;2023-05-16T04:03:22;24.07;;;19.23;;
13014;SDS011;6573;57.696;11.950;2023-05-16T04:05:54;26.03;;;23.00;;
13014;SDS011;6573;57.696;11.950;2023-05-16T04:08:23;37.70;;;24.00;;
13014;SDS011;6573;57.696;11.950;2023-05-16T04:10:51;39.97;;;23.23;;
13014;SDS011;6573;57.696;11.950;2023-05-16T04:13:20;32.43;;;21.57;;
13014;SDS011;6573;57.696;11.950;2023-05-16T04:15:50;71.20;;;23.57;;
13014;SDS011;6573;57.696;11.950;2023-05-16T04:18:18;35.13;;;23.50;;
13014;SDS011;6573;57.696;11.950;2023-05-16T04:20:46;44.13;;;29.53;;
13014;SDS011;6573;57.696;11.950;2023-05-16T04:23:14;36.80;;;28.43;;
13014;SDS011;6573;57.696;11.950;2023-05-16T04:25:43;36.30;;;21.60;;
13014;SDS011;6573;57.696;11.950;2023-05-16T04:28:11;33.07;;;20.77;;
13014;SDS011;6573;57.696;11.950;2023-05-16T04:30:40;32.30;;;21.50;;
13014;SDS011;6573;57.696;11.950;2023-05-16T04:33:11;33.67;;;22.40;;
13014;SDS011;6573;57.696;11.950;2023-05-16T04:35:39;38.93;;;23.00;;
13014;SDS011;6573;57.696;11.950;2023-05-16T04:38:07;29.33;;;21.83;;
13014;SDS011;6573;57.696;11.950;2023-05-16T04:40:35;33.43;;;22.57;;
13014;SDS011;6573;57.696;11.950;2023-05-16T04:43:04;31.73;;;22.30;;
13014;SDS011;6573;57.696;11.950;2023-05-16T04:45:32;29.43;;;23.07;;
13014;SDS011;6573;57.696;11.950;2023-05-16T04:48:03;31.13;;;22.43;;
13014;SDS011;6573;57.696;11.950;2023-05-16T04:50:33;32.80;;;25.27;;
13014;SDS011;6573;57.696;11.950;2023-05-16T04:53:01;33.57;;;23.73;;
13014;SDS011;6573;57.696;11.950;2023-05-16T04:55:30;33.57;;;24.07;;
13014;SDS011;6573;57.696;11.950;2023-05-16T04:57:58;33.17;;;24.67;;
13014;SDS011;6573;57.696;11.950;2023-05-16T05:00:27;32.87;;;24.27;;
13014;SDS011;6573;57.696;11.950;2023-05-16T05:02:56;34.70;;;24.17;;
13014;SDS011;6573;57.696;11.950;2023-05-16T05:05:24;29.73;;;24.77;;
13014;SDS011;6573;57.696;11.950;2023-05-16T05:07:56;35.33;;;24.90;;
13014;SDS011;6573;57.696;11.950;2023-05-16T05:10:25;31.17;;;27.77;;
13014;SDS011;6573;57.696;11.950;2023-05-16T05:12:54;33.73;;;27.73;;
13014;SDS011;6573;57.696;11.950;2023-05-16T05:15:22;33.23;;;23.13;;
13014;SDS011;6573;57.696;11.950;2023-05-16T05:17:51;28.03;;;21.07;;
13014;SDS011;6573;57.696;11.950;2023-05-16T05:20:20;27.53;;;21.00;;
13014;SDS011;6573;57.696;11.950;2023-05-16T05:22:48;26.13;;;19.80;;
13014;SDS011;6573;57.696;11.950;2023-05-16T05:25:18;31.93;;;19.70;;
13014;SDS011;6573;57.696;11.950;2023-05-16T05:27:47;27.10;;;18.40;;
13014;SDS011;6573;57.696;11.950;2023-05-16T05:30:15;25.03;;;19.77;;
13014;SDS011;6573;57.696;11.950;2023-05-16T05:32:44;26.23;;;19.23;;
13014;SDS011;6573;57.696;11.950;2023-05-16T05:35:12;27.67;;;19.07;;
13014;SDS011;6573;57.696;11.950;2023-05-16T05:37:41;39.10;;;21.17;;
13014;SDS011;6573;57.696;11.950;2023-05-16T05:40:09;34.63;;;21.60;;
13014;SDS011;6573;57.696;11.950;2023-05-16T05:42:42;36.03;;;23.90;;
13014;SDS011;6573;57.696;11.950;2023-05-16T05:45:13;34.67;;;21.17;;
13014;SDS011;6573;57.696;11.950;2023-05-16T05:47:41;37.83;;;22.30;;
13014;SDS011;6573;57.696;11.950;2023-05-16T05:50:11;36.43;;;22.57;;
13014;SDS011;6573;57.696;11.950;2023-05-16T05:52:40;29.90;;;18.00;;
13014;SDS011;6573;57.696;11.950;2023-05-16T05:55:11;22.20;;;18.20;;
13014;SDS011;6573;57.696;11.950;2023-05-16T05:57:43;30.23;;;18.30;;
13014;SDS011;6573;57.696;11.950;2023-05-16T06:00:12;26.33;;;17.07;;
13014;SDS011;6573;57.696;11.950;2023-05-16T06:02:40;27.73;;;18.77;;
13014;SDS011;6573;57.696;11.950;2023-05-16T06:05:12;25.53;;;17.10;;
13014;SDS011;6573;57.696;11.950;2023-05-16T06:07:40;28.03;;;17.63;;
13014;SDS011;6573;57.696;11.950;2023-05-16T06:10:09;19.80;;;16.13;;
13014;SDS011;6573;57.696;11.950;2023-05-16T06:12:37;23.53;;;15.60;;
13014;SDS011;6573;57.696;11.950;2023-05-16T06:15:08;27.67;;;17.53;;
13014;SDS011;6573;57.696;11.950;2023-05-16T06:17:37;24.83;;;14.33;;
13014;SDS011;6573;57.696;11.950;2023-05-16T06:20:06;14.90;;;12.90;;
13014;SDS011;6573;57.696;11.950;2023-05-16T06:22:35;14.53;;;12.63;;
13014;SDS011;6573;57.696;11.950;2023-05-16T06:25:04;14.87;;;11.77;;
13014;SDS011;6573;57.696;11.950;2023-05-16T06:27:33;13.63;;;11.63;;
13014;SDS011;6573;57.696;11.950;2023-05-16T06:30:02;16.80;;;11.80;;
13014;SDS011;6573;57.696;11.950;2023-05-16T06:32:32;16.83;;;11.20;;
13014;SDS011;6573;57.696;11.950;2023-05-16T06:35:01;15.67;;;9.40;;
13014;SDS011;6573;57.696;11.950;2023-05-16T06:37:32;12.53;;;8.63;;
13014;SDS011;6573;57.696;11.950;2023-05-16T06:40:01;13.17;;;7.97;;
13014;SDS011;6573;57.696;11.950;2023-05-16T06:42:30;13.43;;;8.20;;
13014;SDS011;6573;57.696;11.950;2023-05-16T06:44:59;11.70;;;8.30;;
13014;SDS011;6573;57.696;11.950;2023-05-16T06:47:29;13.37;;;8.70;;
13014;SDS011;6573;57.696;11.950;2023-05-16T06:50:01;12.77;;;8.33;;
13014;SDS011;6573;57.696;11.950;2023-05-16T06:52:30;12.00;;;8.40;;
13014;SDS011;6573;57.696;11.950;2023-05-16T06:54:58;12.33;;;7.87;;
13014;SDS011;6573;57.696;11.950;2023-05-16T06:57:29;11.07;;;6.90;;
13014;SDS011;6573;57.696;11.950;2023-05-16T06:59:57;12.30;;;7.10;;
13014;SDS011;6573;57.696;11.950;2023-05-16T07:02:25;8.10;;;7.20;;
13014;SDS011;6573;57.696;11.950;2023-05-16T07:04:54;8.90;;;7.33;;
13014;SDS011;6573;57.696;11.950;2023-05-16T07:07:24;8.50;;;6.50;;
13014;SDS011;6573;57.696;11.950;2023-05-16T07:09:58;11.55;;;7.78;;
13014;SDS011;6573;57.696;11.950;2023-05-16T07:12:27;15.23;;;7.80;;
13014;SDS011;6573;57.696;11.950;2023-05-16T07:14:56;10.57;;;7.40;;
13014;SDS011;6573;57.696;11.950;2023-05-16T07:17:24;7.53;;;6.33;;
13014;SDS011;6573;57.696;11.950;2023-05-16T07:19:53;10.47;;;6.47;;
13014;SDS011;6573;57.696;11.950;2023-05-16T07:22:21;15.77;;;7.17;;
13014;SDS011;6573;57.696;11.950;2023-05-16T07:24:51;9.27;;;6.70;;
13014;SDS011;6573;57.696;11.950;2023-05-16T07:27:22;12.27;;;7.40;;
13014;SDS011;6573;57.696;11.950;2023-05-16T07:29:50;11.80;;;8.33;;
13014;SDS011;6573;57.696;11.950;2023-05-16T07:32:19;11.03;;;7.43;;
13014;SDS011;6573;57.696;11.950;2023-05-16T07:34:47;10.17;;;8.20;;
13014;SDS011;6573;57.696;11.950;2023-05-16T07:37:16;9.77;;;7.53;;
13014;SDS011;6573;57.696;11.950;2023-05-16T07:39:44;12.37;;;7.13;;
13014;SDS011;6573;57.696;11.950;2023-05-16T07:42:14;12.00;;;7.70;;
13014;SDS011;6573;57.696;11.950;2023-05-16T07:44:42;17.50;;;8.50;;
13014;SDS011;6573;57.696;11.950;2023-05-16T07:47:10;14.57;;;7.80;;
13014;SDS011;6573;57.696;11.950;2023-05-16T07:49:38;14.10;;;7.83;;
13014;SDS011;6573;57.696;11.950;2023-05-16T07:52:07;10.10;;;7.37;;
13014;SDS011;6573;57.696;11.950;2023-05-16T07:54:35;7.97;;;6.60;;
13014;SDS011;6573;57.696;11.950;2023-05-16T07:57:04;8.03;;;7.03;;
13014;SDS011;6573;57.696;11.950;2023-05-16T07:59:34;12.23;;;7.00;;
13014;SDS011;6573;57.696;11.950;2023-05-16T08:02:03;11.13;;;8.33;;
13014;SDS011;6573;57.696;11.950;2023-05-16T08:04:31;11.27;;;9.45;;
13014;SDS011;6573;57.696;11.950;2023-05-16T08:07:00;12.63;;;9.27;;
13014;SDS011;6573;57.696;11.950;2023-05-16T08:09:28;11.60;;;7.37;;
13014;SDS011;6573;57.696;11.950;2023-05-16T08:11:57;12.97;;;7.50;;
13014;SDS011;6573;57.696;11.950;2023-05-16T08:14:32;11.00;;;6.83;;
13014;SDS011;6573;57.696;11.950;2023-05-16T08:17:01;7.73;;;6.50;;
13014;SDS011;6573;57.696;11.950;2023-05-16T08:19:30;11.57;;;7.50;;
13014;SDS011;6573;57.696;11.950;2023-05-16T08:21:59;13.27;;;7.17;;
13014;SDS011;6573;57.696;11.950;2023-05-16T08:24:33;12.07;;;7.57;;
13014;SDS011;6573;57.696;11.950;2023-05-16T08:27:01;33.00;;;8.53;;
13014;SDS011;6573;57.696;11.950;2023-05-16T08:29:30;12.73;;;6.00;;
13014;SDS011;6573;57.696;11.950;2023-05-16T08:31:59;15.97;;;6.37;;
13014;SDS011;6573;57.696;11.950;2023-05-16T08:34:32;10.10;;;5.97;;
13014;SDS011;6573;57.696;11.950;2023-05-16T08:37:01;12.40;;;5.37;;
13014;SDS011;6573;57.696;11.950;2023-05-16T08:39:29;9.23;;;6.10;;
13014;SDS011;6573;57.696;11.950;2023-05-16T08:42:01;11.23;;;6.30;;
13014;SDS011;6573;57.696;11.950;2023-05-16T08:44:30;8.87;;;5.03;;
13014;SDS011;6573;57.696;11.950;2023-05-16T08:47:06;9.90;;;5.80;;
13014;SDS011;6573;57.696;11.950;2023-05-16T08:49:39;8.10;;;5.83;;
13014;SDS011;6573;57.696;11.950;2023-05-16T08:52:09;7.53;;;6.30;;
13014;SDS011;6573;57.696;11.950;2023-05-16T08:54:39;9.77;;;6.40;;
13014;SDS011;6573;57.696;11.950;2023-05-16T08:57:08;12.27;;;6.60;;
13014;SDS011;6573;57.696;11.950;2023-05-16T08:59:37;10.80;;;6.17;;
13014;SDS011;6573;57.696;11.950;2023-05-16T09:02:07;7.27;;;6.13;;
13014;SDS011;6573;57.696;11.950;2023-05-16T09:04:35;14.30;;;6.57;;
13014;SDS011;6573;57.696;11.950;2023-05-16T09:07:05;18.07;;;6.40;;
13014;SDS011;6573;57.696;11.950;2023-05-16T09:09:33;10.60;;;6.37;;
13014;SDS011;6573;57.696;11.950;2023-05-16T09:12:02;10.30;;;6.27;;
13014;SDS011;6573;57.696;11.950;2023-05-16T09:14:31;11.23;;;5.97;;
13014;SDS011;6573;57.696;11.950;2023-05-16T09:17:05;7.23;;;5.70;;
13014;SDS011;6573;57.696;11.950;2023-05-16T09:19:38;9.40;;;5.40;;
13014;SDS011;6573;57.696;11.950;2023-05-16T09:22:08;15.53;;;6.00;;
13014;SDS011;6573;57.696;11.950;2023-05-16T09:24:37;9.27;;;7.03;;
13014;SDS011;6573;57.696;11.950;2023-05-16T09:27:06;12.00;;;7.13;;
13014;SDS011;6573;57.696;11.950;2023-05-16T09:29:35;10.93;;;5.80;;
13014;SDS011;6573;57.696;11.950;2023-05-16T09:32:08;11.27;;;5.77;;
13014;SDS011;6573;57.696;11.950;2023-05-16T09:34:42;11.00;;;6.03;;
13014;SDS011;6573;57.696;11.950;2023-05-16T09:37:11;11.37;;;6.27;;
13014;SDS011;6573;57.696;11.950;2023-05-16T09:39:40;15.23;;;5.70;;
13014;SDS011;6573;57.696;11.950;2023-05-16T09:42:14;11.47;;;5.90;;
13014;SDS011;6573;57.696;11.950;2023-05-16T09:44:44;8.63;;;5.60;;
13014;SDS011;6573;57.696;11.950;2023-05-16T09:47:17;8.10;;;6.30;;
13014;SDS011;6573;57.696;11.950;2023-05-16T09:49:46;12.40;;;6.07;;
13014;SDS011;6573;57.696;11.950;2023-05-16T09:52:18;9.60;;;5.43;;
13014;SDS011;6573;57.696;11.950;2023-05-16T09:54:47;9.70;;;5.27;;
13014;SDS011;6573;57.696;11.950;2023-05-16T09:57:18;9.70;;;5.97;;
13014;SDS011;6573;57.696;11.950;2023-05-16T09:59:47;15.07;;;5.60;;
13014;SDS011;6573;57.696;11.950;2023-05-16T10:02:17;13.40;;;5.47;;
13014;SDS011;6573;57.696;11.950;2023-05-16T10:04:47;8.83;;;5.30;;
13014;SDS011;6573;57.696;11.950;2023-05-16T10:07:15;7.57;;;4.17;;
13014;SDS011;6573;57.696;11.950;2023-05-16T10:09:44;13.67;;;5.30;;
13014;SDS011;6573;57.696;11.950;2023-05-16T10:12:14;13.37;;;6.40;;
13014;SDS011;6573;57.696;11.950;2023-05-16T10:14:45;12.93;;;5.70;;
13014;SDS011;6573;57.696;11.950;2023-05-16T10:17:18;10.63;;;4.97;;
13014;SDS011;6573;57.696;11.950;2023-05-16T10:19:47;9.00;;;5.40;;
13014;SDS011;6573;57.696;11.950;2023-05-16T10:22:17;8.60;;;4.80;;
13014;SDS011;6573;57.696;11.950;2023-05-16T10:24:51;13.43;;;5.67;;
13014;SDS011;6573;57.696;11.950;2023-05-16T10:27:24;7.33;;;4.90;;
13014;SDS011;6573;57.696;11.950;2023-05-16T10:29:53;12.20;;;5.10;;
13014;SDS011;6573;57.696;11.950;2023-05-16T10:32:25;12.40;;;5.27;;
13014;SDS011;6573;57.696;11.950;2023-05-16T10:34:55;13.03;;;5.00;;
13014;SDS011;6573;57.696;11.950;2023-05-16T10:37:28;6.57;;;4.70;;
13014;SDS011;6573;57.696;11.950;2023-05-16T10:39:58;9.33;;;5.30;;
13014;SDS011;6573;57.696;11.950;2023-05-16T10:42:31;11.83;;;5.27;;
13014;SDS011;6573;57.696;11.950;2023-05-16T10:45:14;9.37;;;5.03;;
13014;SDS011;6573;57.696;11.950;2023-05-16T10:47:55;7.10;;;5.00;;
13014;SDS011;6573;57.696;11.950;2023-05-16T10:50:31;14.33;;;5.67;;
13014;SDS011;6573;57.696;11.950;2023-05-16T10:53:11;11.17;;;5.37;;
13014;SDS011;6573;57.696;11.950;2023-05-16T10:55:43;11.23;;;5.70;;
13014;SDS011;6573;57.696;11.950;2023-05-16T10:58:22;7.37;;;5.10;;
13014;SDS011;6573;57.696;11.950;2023-05-16T11:06:44;8.07;;;5.33;;
13014;SDS011;6573;57.696;11.950;2023-05-16T11:09:19;11.77;;;5.27;;
13014;SDS011;6573;57.696;11.950;2023-05-16T11:11:55;6.53;;;5.07;;
13014;SDS011;6573;57.696;11.950;2023-05-16T11:14:27;12.07;;;5.40;;
13014;SDS011;6573;57.696;11.950;2023-05-16T11:17:01;10.70;;;5.20;;
13014;SDS011;6573;57.696;11.950;2023-05-16T11:19:39;7.93;;;5.00;;
13014;SDS011;6573;57.696;11.950;2023-05-16T11:22:10;7.33;;;4.93;;
13014;SDS011;6573;57.696;11.950;2023-05-16T11:27:28;6.10;;;4.27;;
13014;SDS011;6573;57.696;11.950;2023-05-16T11:29:58;6.90;;;5.30;;
13014;SDS011;6573;57.696;11.950;2023-05-16T11:32:33;11.90;;;4.67;;
13014;SDS011;6573;57.696;11.950;2023-05-16T11:35:04;8.30;;;5.20;;
13014;SDS011;6573;57.696;11.950;2023-05-16T11:37:36;11.47;;;4.67;;
13014;SDS011;6573;57.696;11.950;2023-05-16T11:40:05;12.97;;;5.03;;
13014;SDS011;6573;57.696;11.950;2023-05-16T11:42:37;10.23;;;4.57;;
13014;SDS011;6573;57.696;11.950;2023-05-16T11:45:09;10.70;;;4.63;;
13014;SDS011;6573;57.696;11.950;2023-05-16T11:47:39;10.57;;;4.43;;
13014;SDS011;6573;57.696;11.950;2023-05-16T11:50:11;8.93;;;4.83;;
13014;SDS011;6573;57.696;11.950;2023-05-16T11:52:42;9.83;;;4.30;;
13014;SDS011;6573;57.696;11.950;2023-05-16T11:55:14;7.63;;;4.50;;
13014;SDS011;6573;57.696;11.950;2023-05-16T11:57:59;7.50;;;3.60;;
13014;SDS011;6573;57.696;11.950;2023-05-16T12:00:30;10.00;;;4.60;;
13014;SDS011;6573;57.696;11.950;2023-05-16T12:03:00;7.73;;;3.77;;
13014;SDS011;6573;57.696;11.950;2023-05-16T12:05:35;15.70;;;4.00;;
13014;SDS011;6573;57.696;11.950;2023-05-16T12:08:03;16.97;;;4.60;;
13014;SDS011;6573;57.696;11.950;2023-05-16T12:10:32;8.03;;;4.00;;
13014;SDS011;6573;57.696;11.950;2023-05-16T12:13:00;11.23;;;4.00;;
13014;SDS011;6573;57.696;11.950;2023-05-16T12:15:30;7.13;;;3.50;;
13014;SDS011;6573;57.696;11.950;2023-05-16T12:17:59;7.90;;;3.63;;
13014;SDS011;6573;57.696;11.950;2023-05-16T12:20:29;17.53;;;4.40;;
13014;SDS011;6573;57.696;11.950;2023-05-16T12:22:59;9.77;;;3.97;;
13014;SDS011;6573;57.696;11.950;2023-05-16T12:25:28;5.27;;;3.83;;
13014;SDS011;6573;57.696;11.950;2023-05-16T12:27:58;6.27;;;4.20;;
13014;SDS011;6573;57.696;11.950;2023-05-16T12:30:29;7.97;;;4.10;;
13014;SDS011;6573;57.696;11.950;2023-05-16T12:32:58;9.50;;;4.10;;
13014;SDS011;6573;57.696;11.950;2023-05-16T12:35:33;9.67;;;4.00;;
13014;SDS011;6573;57.696;11.950;2023-05-16T12:38:05;10.13;;;4.03;;
13014;SDS011;6573;57.696;11.950;2023-05-16T12:40:36;6.00;;;3.67;;
13014;SDS011;6573;57.696;11.950;2023-05-16T12:43:11;7.30;;;4.00;;
13014;SDS011;6573;57.696;11.950;2023-05-16T12:45:40;8.13;;;3.83;;
13014;SDS011;6573;57.696;11.950;2023-05-16T12:48:12;6.03;;;3.87;;
13014;SDS011;6573;57.696;11.950;2023-05-16T12:50:40;5.53;;;3.77;;
13014;SDS011;6573;57.696;11.950;2023-05-16T12:53:14;5.43;;;3.93;;
13014;SDS011;6573;57.696;11.950;2023-05-16T12:55:43;9.60;;;4.40;;
13014;SDS011;6573;57.696;11.950;2023-05-16T12:58:12;9.27;;;4.20;;
13014;SDS011;6573;57.696;11.950;2023-05-16T13:00:44;6.60;;;3.97;;
13014;SDS011;6573;57.696;11.950;2023-05-16T13:03:12;9.63;;;4.50;;
13014;SDS011;6573;57.696;11.950;2023-05-16T13:05:41;9.00;;;4.27;;
13014;SDS011;6573;57.696;11.950;2023-05-16T13:08:10;6.70;;;4.07;;
13014;SDS011;6573;57.696;11.950;2023-05-16T13:10:39;7.97;;;4.20;;
13014;SDS011;6573;57.696;11.950;2023-05-16T13:13:08;7.80;;;4.17;;
13014;SDS011;6573;57.696;11.950;2023-05-16T13:15:44;8.03;;;4.17;;
13014;SDS011;6573;57.696;11.950;2023-05-16T13:18:13;6.50;;;4.43;;
13014;SDS011;6573;57.696;11.950;2023-05-16T13:20:42;7.27;;;4.00;;
13014;SDS011;6573;57.696;11.950;2023-05-16T13:23:12;7.10;;;4.20;;
13014;SDS011;6573;57.696;11.950;2023-05-16T13:25:42;5.47;;;3.83;;
13014;SDS011;6573;57.696;11.950;2023-05-16T13:28:18;5.13;;;4.37;;
13014;SDS011;6573;57.696;11.950;2023-05-16T13:30:46;8.50;;;4.47;;
13014;SDS011;6573;57.696;11.950;2023-05-16T13:33:18;11.30;;;4.60;;
13014;SDS011;6573;57.696;11.950;2023-05-16T13:35:46;12.40;;;4.77;;
13014;SDS011;6573;57.696;11.950;2023-05-16T13:38:16;10.90;;;4.87;;
13014;SDS011;6573;57.696;11.950;2023-05-16T13:40:46;7.60;;;5.00;;
13014;SDS011;6573;57.696;11.950;2023-05-16T13:43:14;8.33;;;4.93;;
13014;SDS011;6573;57.696;11.950;2023-05-16T13:45:43;7.83;;;5.00;;
13014;SDS011;6573;57.696;11.950;2023-05-16T13:48:11;10.00;;;5.00;;
13014;SDS011;6573;57.696;11.950;2023-05-16T13:50:40;7.77;;;4.50;;
13014;SDS011;6573;57.696;11.950;2023-05-16T13:53:09;6.23;;;4.60;;
13014;SDS011;6573;57.696;11.950;2023-05-16T13:55:38;8.67;;;4.67;;
13014;SDS011;6573;57.696;11.950;2023-05-16T13:58:08;10.10;;;4.23;;
13014;SDS011;6573;57.696;11.950;2023-05-16T14:00:37;9.33;;;5.33;;
13014;SDS011;6573;57.696;11.950;2023-05-16T14:03:11;6.20;;;4.67;;
13014;SDS011;6573;57.696;11.950;2023-05-16T14:05:40;7.20;;;4.90;;
13014;SDS011;6573;57.696;11.950;2023-05-16T14:08:08;6.30;;;4.50;;
13014;SDS011;6573;57.696;11.950;2023-05-16T14:10:37;5.80;;;4.90;;
13014;SDS011;6573;57.696;11.950;2023-05-16T14:13:05;6.43;;;4.23;;
13014;SDS011;6573;57.696;11.950;2023-05-16T14:15:35;10.00;;;4.30;;
13014;SDS011;6573;57.696;11.950;2023-05-16T14:18:04;8.80;;;4.30;;
13014;SDS011;6573;57.696;11.950;2023-05-16T14:20:32;5.93;;;4.40;;
13014;SDS011;6573;57.696;11.950;2023-05-16T14:23:01;7.10;;;4.77;;
13014;SDS011;6573;57.696;11.950;2023-05-16T14:25:29;7.13;;;4.70;;
13014;SDS011;6573;57.696;11.950;2023-05-16T14:28:01;8.40;;;4.50;;
13014;SDS011;6573;57.696;11.950;2023-05-16T14:30:30;6.27;;;4.60;;
13014;SDS011;6573;57.696;11.950;2023-05-16T14:32:59;11.73;;;5.03;;
13014;SDS011;6573;57.696;11.950;2023-05-16T14:35:29;6.87;;;5.17;;
13014;SDS011;6573;57.696;11.950;2023-05-16T14:38:00;8.43;;;5.40;;
13014;SDS011;6573;57.696;11.950;2023-05-16T14:40:29;7.57;;;4.87;;
13014;SDS011;6573;57.696;11.950;2023-05-16T14:42:57;8.33;;;5.20;;
13014;SDS011;6573;57.696;11.950;2023-05-16T14:45:26;7.27;;;5.30;;
13014;SDS011;6573;57.696;11.950;2023-05-16T14:47:59;9.20;;;5.60;;
13014;SDS011;6573;57.696;11.950;2023-05-16T14:50:33;11.03;;;5.70;;
13014;SDS011;6573;57.696;11.950;2023-05-16T14:53:01;11.93;;;5.10;;
13014;SDS011;6573;57.696;11.950;2023-05-16T14:55:31;6.77;;;5.10;;
13014;SDS011;6573;57.696;11.950;2023-05-16T14:58:00;9.93;;;5.60;;
13014;SDS011;6573;57.696;11.950;2023-05-16T15:00:29;6.67;;;5.53;;